sensor_id;sensor_type;location;lat;lon;timestamp;P1;durP1;ratioP1;P2;durP2;ratioP2
11817;SDS011;5966;52.402;5.322;2024-01-15T00:00:17;8.63;;;1.40;;
11817;SDS011;5966;52.402;5.322;2024-01-15T00:02:46;9.03;;;1.93;;
11817;SDS011;5966;52.402;5.322;2024-01-15T00:05:15;8.83;;;2.10;;
11817;SDS011;5966;52.402;5.322;2024-01-15T00:07:44;7.37;;;2.03;;
11817;SDS011;5966;52.402;5.322;2024-01-15T00:10:12;7.03;;;1.40;;
11817;SDS011;5966;52.402;5.322;2024-01-15T00:12:51;7.70;;;1.70;;
11817;SDS011;5966;52.402;5.322;2024-01-15T00:15:25;4.33;;;1.33;;
11817;SDS011;5966;52.402;5.322;2024-01-15T00:18:09;5.97;;;1.43;;
11817;SDS011;5966;52.402;5.322;2024-01-15T00:20:38;10.33;;;2.10;;
11817;SDS011;5966;52.402;5.322;2024-01-15T00:23:09;4.87;;;1.37;;
11817;SDS011;5966;52.402;5.322;2024-01-15T00:25:38;8.87;;;1.73;;
11817;SDS011;5966;52.402;5.322;2024-01-15T00:28:08;5.93;;;1.50;;
11817;SDS011;5966;52.402;5.322;2024-01-15T00:30:40;11.80;;;2.20;;
11817;SDS011;5966;52.402;5.322;2024-01-15T00:33:12;9.13;;;2.10;;
11817;SDS011;5966;52.402;5.322;2024-01-15T00:35:43;7.70;;;1.70;;
11817;SDS011;5966;52.402;5.322;2024-01-15T00:38:14;4.07;;;1.37;;
11817;SDS011;5966;52.402;5.322;2024-01-15T00:40:43;4.77;;;1.40;;
11817;SDS011;5966;52.402;5.322;2024-01-15T00:43:11;9.23;;;1.57;;
11817;SDS011;5966;52.402;5.322;2024-01-15T00:45:41;8.17;;;1.40;;
11817;SDS011;5966;52.402;5.322;2024-01-15T00:48:10;7.13;;;1.73;;
11817;SDS011;5966;52.402;5.322;2024-01-15T00:50:39;4.87;;;1.23;;
11817;SDS011;5966;52.402;5.322;2024-01-15T00:53:07;8.10;;;1.50;;
11817;SDS011;5966;52.402;5.322;2024-01-15T00:55:39;6.97;;;1.43;;
11817;SDS011;5966;52.402;5.322;2024-01-15T00:58:08;5.33;;;1.53;;
11817;SDS011;5966;52.402;5.322;2024-01-15T01:00:46;3.77;;;1.50;;
11817;SDS011;5966;52.402;5.322;2024-01-15T01:03:15;4.43;;;1.30;;
11817;SDS011;5966;52.402;5.322;2024-01-15T01:05:48;3.67;;;1.00;;
11817;SDS011;5966;52.402;5.322;2024-01-15T01:08:17;5.87;;;1.10;;
11817;SDS011;5966;52.402;5.322;2024-01-15T01:10:47;6.30;;;1.37;;
11817;SDS011;5966;52.402;5.322;2024-01-15T01:16:32;4.07;;;1.00;;
11817;SDS011;5966;52.402;5.322;2024-01-15T01:19:06;2.70;;;0.83;;
11817;SDS011;5966;52.402;5.322;2024-01-15T01:21:34;4.83;;;0.70;;
11817;SDS011;5966;52.402;5.322;2024-01-15T01:24:04;4.37;;;1.20;;
11817;SDS011;5966;52.402;5.322;2024-01-15T01:26:32;4.63;;;1.30;;
11817;SDS011;5966;52.402;5.322;2024-01-15T01:29:01;3.40;;;1.07;;
11817;SDS011;5966;52.402;5.322;2024-01-15T01:31:29;1.40;;;0.60;;
11817;SDS011;5966;52.402;5.322;2024-01-15T01:34:03;3.97;;;1.20;;
11817;SDS011;5966;52.402;5.322;2024-01-15T01:36:41;5.07;;;1.00;;
11817;SDS011;5966;52.402;5.322;2024-01-15T01:39:10;4.53;;;1.10;;
11817;SDS011;5966;52.402;5.322;2024-01-15T01:41:39;6.40;;;1.20;;
11817;SDS011;5966;52.402;5.322;2024-01-15T01:44:07;3.33;;;1.20;;
11817;SDS011;5966;52.402;5.322;2024-01-15T01:46:36;4.83;;;1.33;;
11817;SDS011;5966;52.402;5.322;2024-01-15T01:49:10;3.47;;;0.90;;
11817;SDS011;5966;52.402;5.322;2024-01-15T01:51:41;5.20;;;1.57;;
11817;SDS011;5966;52.402;5.322;2024-01-15T01:54:10;3.87;;;1.00;;
11817;SDS011;5966;52.402;5.322;2024-01-15T01:56:42;3.03;;;1.20;;
11817;SDS011;5966;52.402;5.322;2024-01-15T01:59:15;7.33;;;1.47;;
11817;SDS011;5966;52.402;5.322;2024-01-15T02:01:43;8.50;;;1.43;;
11817;SDS011;5966;52.402;5.322;2024-01-15T02:04:18;2.53;;;0.93;;
11817;SDS011;5966;52.402;5.322;2024-01-15T02:06:50;5.77;;;1.20;;
11817;SDS011;5966;52.402;5.322;2024-01-15T02:09:20;4.87;;;1.20;;
11817;SDS011;5966;52.402;5.322;2024-01-15T02:11:50;3.70;;;1.17;;
11817;SDS011;5966;52.402;5.322;2024-01-15T02:14:19;5.17;;;1.33;;
11817;SDS011;5966;52.402;5.322;2024-01-15T02:16:51;5.43;;;1.17;;
11817;SDS011;5966;52.402;5.322;2024-01-15T02:19:22;6.13;;;1.17;;
11817;SDS011;5966;52.402;5.322;2024-01-15T02:21:55;6.30;;;1.73;;
11817;SDS011;5966;52.402;5.322;2024-01-15T02:24:33;6.20;;;1.27;;
11817;SDS011;5966;52.402;5.322;2024-01-15T02:27:02;2.63;;;0.97;;
11817;SDS011;5966;52.402;5.322;2024-01-15T02:29:34;4.47;;;0.87;;
11817;SDS011;5966;52.402;5.322;2024-01-15T02:32:04;7.77;;;1.57;;
11817;SDS011;5966;52.402;5.322;2024-01-15T02:34:36;8.10;;;1.20;;
11817;SDS011;5966;52.402;5.322;2024-01-15T02:37:05;2.63;;;1.10;;
11817;SDS011;5966;52.402;5.322;2024-01-15T02:39:35;3.73;;;1.50;;
11817;SDS011;5966;52.402;5.322;2024-01-15T02:42:04;6.80;;;1.30;;
11817;SDS011;5966;52.402;5.322;2024-01-15T02:44:34;3.77;;;1.23;;
11817;SDS011;5966;52.402;5.322;2024-01-15T02:47:05;4.40;;;1.07;;
11817;SDS011;5966;52.402;5.322;2024-01-15T02:49:33;5.60;;;1.07;;
11817;SDS011;5966;52.402;5.322;2024-01-15T02:52:02;2.97;;;0.67;;
11817;SDS011;5966;52.402;5.322;2024-01-15T02:54:32;3.07;;;0.73;;
11817;SDS011;5966;52.402;5.322;2024-01-15T02:57:03;1.60;;;0.40;;
11817;SDS011;5966;52.402;5.322;2024-01-15T02:59:31;0.93;;;0.10;;
11817;SDS011;5966;52.402;5.322;2024-01-15T03:02:00;0.23;;;0.10;;
11817;SDS011;5966;52.402;5.322;2024-01-15T03:04:28;0.50;;;0.20;;
11817;SDS011;5966;52.402;5.322;2024-01-15T03:06:57;1.20;;;0.30;;
11817;SDS011;5966;52.402;5.322;2024-01-15T03:09:26;0.73;;;0.20;;
11817;SDS011;5966;52.402;5.322;2024-01-15T03:11:54;1.53;;;0.50;;
11817;SDS011;5966;52.402;5.322;2024-01-15T03:14:28;0.70;;;0.30;;
11817;SDS011;5966;52.402;5.322;2024-01-15T03:17:00;2.13;;;0.40;;
11817;SDS011;5966;52.402;5.322;2024-01-15T03:19:29;1.90;;;0.50;;
11817;SDS011;5966;52.402;5.322;2024-01-15T03:22:05;2.17;;;0.77;;
11817;SDS011;5966;52.402;5.322;2024-01-15T03:24:35;1.87;;;0.70;;
11817;SDS011;5966;52.402;5.322;2024-01-15T03:27:05;3.40;;;0.37;;
11817;SDS011;5966;52.402;5.322;2024-01-15T03:29:35;1.20;;;0.53;;
11817;SDS011;5966;52.402;5.322;2024-01-15T03:32:06;0.50;;;0.30;;
11817;SDS011;5966;52.402;5.322;2024-01-15T03:34:34;4.30;;;0.73;;
11817;SDS011;5966;52.402;5.322;2024-01-15T03:37:03;1.33;;;0.40;;
11817;SDS011;5966;52.402;5.322;2024-01-15T03:39:32;2.33;;;0.67;;
11817;SDS011;5966;52.402;5.322;2024-01-15T03:42:01;4.07;;;0.80;;
11817;SDS011;5966;52.402;5.322;2024-01-15T03:44:29;2.10;;;0.83;;
11817;SDS011;5966;52.402;5.322;2024-01-15T03:47:03;6.63;;;0.60;;
11817;SDS011;5966;52.402;5.322;2024-01-15T03:49:35;1.50;;;0.60;;
11817;SDS011;5966;52.402;5.322;2024-01-15T03:52:04;4.80;;;0.60;;
11817;SDS011;5966;52.402;5.322;2024-01-15T03:54:33;4.33;;;0.70;;
11817;SDS011;5966;52.402;5.322;2024-01-15T03:57:02;2.83;;;0.50;;
11817;SDS011;5966;52.402;5.322;2024-01-15T03:59:32;1.97;;;0.60;;
11817;SDS011;5966;52.402;5.322;2024-01-15T04:02:02;4.90;;;0.73;;
11817;SDS011;5966;52.402;5.322;2024-01-15T04:04:31;2.93;;;0.80;;
11817;SDS011;5966;52.402;5.322;2024-01-15T04:06:59;2.57;;;0.67;;
11817;SDS011;5966;52.402;5.322;2024-01-15T04:09:31;3.33;;;0.97;;
11817;SDS011;5966;52.402;5.322;2024-01-15T04:12:00;2.33;;;1.00;;
11817;SDS011;5966;52.402;5.322;2024-01-15T04:14:28;2.70;;;0.73;;
11817;SDS011;5966;52.402;5.322;2024-01-15T04:16:58;4.17;;;0.70;;
11817;SDS011;5966;52.402;5.322;2024-01-15T04:19:29;5.20;;;0.80;;
11817;SDS011;5966;52.402;5.322;2024-01-15T04:21:57;4.83;;;0.90;;
11817;SDS011;5966;52.402;5.322;2024-01-15T04:24:24;2.20;;;1.00;;
11817;SDS011;5966;52.402;5.322;2024-01-15T04:26:53;7.13;;;1.03;;
11817;SDS011;5966;52.402;5.322;2024-01-15T04:29:21;2.87;;;1.00;;
11817;SDS011;5966;52.402;5.322;2024-01-15T04:31:52;2.60;;;0.70;;
11817;SDS011;5966;52.402;5.322;2024-01-15T04:34:21;3.40;;;1.07;;
11817;SDS011;5966;52.402;5.322;2024-01-15T04:36:51;2.03;;;0.87;;
11817;SDS011;5966;52.402;5.322;2024-01-15T04:39:19;2.20;;;0.70;;
11817;SDS011;5966;52.402;5.322;2024-01-15T04:41:48;2.50;;;1.00;;
11817;SDS011;5966;52.402;5.322;2024-01-15T04:44:16;2.83;;;0.80;;
11817;SDS011;5966;52.402;5.322;2024-01-15T04:46:48;7.60;;;1.50;;
11817;SDS011;5966;52.402;5.322;2024-01-15T04:49:17;7.10;;;1.30;;
11817;SDS011;5966;52.402;5.322;2024-01-15T04:51:47;4.90;;;1.07;;
11817;SDS011;5966;52.402;5.322;2024-01-15T04:54:26;10.47;;;1.37;;
11817;SDS011;5966;52.402;5.322;2024-01-15T04:56:54;4.17;;;1.03;;
11817;SDS011;5966;52.402;5.322;2024-01-15T04:59:24;6.87;;;1.20;;
11817;SDS011;5966;52.402;5.322;2024-01-15T05:01:55;4.90;;;1.30;;
11817;SDS011;5966;52.402;5.322;2024-01-15T05:04:24;9.27;;;1.73;;
11817;SDS011;5966;52.402;5.322;2024-01-15T05:06:52;6.90;;;1.63;;
11817;SDS011;5966;52.402;5.322;2024-01-15T05:09:20;3.83;;;1.27;;
11817;SDS011;5966;52.402;5.322;2024-01-15T05:11:50;4.37;;;1.13;;
11817;SDS011;5966;52.402;5.322;2024-01-15T05:14:18;5.07;;;1.53;;
11817;SDS011;5966;52.402;5.322;2024-01-15T05:16:47;9.30;;;1.67;;
11817;SDS011;5966;52.402;5.322;2024-01-15T05:19:15;6.30;;;1.20;;
11817;SDS011;5966;52.402;5.322;2024-01-15T05:21:44;4.33;;;1.63;;
11817;SDS011;5966;52.402;5.322;2024-01-15T05:24:12;7.17;;;1.57;;
11817;SDS011;5966;52.402;5.322;2024-01-15T05:26:40;5.07;;;1.40;;
11817;SDS011;5966;52.402;5.322;2024-01-15T05:31:54;5.83;;;1.40;;
11817;SDS011;5966;52.402;5.322;2024-01-15T05:34:27;4.53;;;1.20;;
11817;SDS011;5966;52.402;5.322;2024-01-15T05:36:57;5.40;;;1.73;;
11817;SDS011;5966;52.402;5.322;2024-01-15T05:39:27;3.60;;;1.03;;
11817;SDS011;5966;52.402;5.322;2024-01-15T05:41:56;3.87;;;1.37;;
11817;SDS011;5966;52.402;5.322;2024-01-15T05:44:24;4.43;;;1.00;;
11817;SDS011;5966;52.402;5.322;2024-01-15T05:47:13;1.87;;;0.50;;
11817;SDS011;5966;52.402;5.322;2024-01-15T05:49:45;2.00;;;0.80;;
11817;SDS011;5966;52.402;5.322;2024-01-15T05:52:15;2.70;;;0.30;;
11817;SDS011;5966;52.402;5.322;2024-01-15T05:54:58;1.10;;;0.30;;
11817;SDS011;5966;52.402;5.322;2024-01-15T05:57:26;1.13;;;0.40;;
11817;SDS011;5966;52.402;5.322;2024-01-15T05:59:56;1.57;;;0.50;;
11817;SDS011;5966;52.402;5.322;2024-01-15T06:02:25;3.93;;;1.13;;
11817;SDS011;5966;52.402;5.322;2024-01-15T06:04:54;2.73;;;0.70;;
11817;SDS011;5966;52.402;5.322;2024-01-15T06:07:28;3.90;;;0.83;;
11817;SDS011;5966;52.402;5.322;2024-01-15T06:09:57;7.83;;;1.30;;
11817;SDS011;5966;52.402;5.322;2024-01-15T06:12:28;3.03;;;0.90;;
11817;SDS011;5966;52.402;5.322;2024-01-15T06:14:58;2.93;;;1.23;;
11817;SDS011;5966;52.402;5.322;2024-01-15T06:17:28;3.63;;;0.90;;
11817;SDS011;5966;52.402;5.322;2024-01-15T06:19:59;4.47;;;1.23;;
11817;SDS011;5966;52.402;5.322;2024-01-15T06:22:28;4.77;;;0.90;;
11817;SDS011;5966;52.402;5.322;2024-01-15T06:24:56;5.43;;;1.20;;
11817;SDS011;5966;52.402;5.322;2024-01-15T06:27:33;5.73;;;1.20;;
11817;SDS011;5966;52.402;5.322;2024-01-15T06:30:02;2.77;;;0.80;;
11817;SDS011;5966;52.402;5.322;2024-01-15T06:32:32;2.70;;;1.07;;
11817;SDS011;5966;52.402;5.322;2024-01-15T06:35:00;3.77;;;1.00;;
11817;SDS011;5966;52.402;5.322;2024-01-15T06:37:29;4.53;;;1.37;;
11817;SDS011;5966;52.402;5.322;2024-01-15T06:39:59;5.23;;;0.90;;
11817;SDS011;5966;52.402;5.322;2024-01-15T06:42:27;4.53;;;1.20;;
11817;SDS011;5966;52.402;5.322;2024-01-15T06:44:56;3.77;;;0.97;;
11817;SDS011;5966;52.402;5.322;2024-01-15T06:47:27;5.90;;;1.10;;
11817;SDS011;5966;52.402;5.322;2024-01-15T06:50:01;3.83;;;1.30;;
11817;SDS011;5966;52.402;5.322;2024-01-15T06:52:31;4.33;;;1.03;;
11817;SDS011;5966;52.402;5.322;2024-01-15T06:55:00;4.63;;;1.27;;
11817;SDS011;5966;52.402;5.322;2024-01-15T06:57:30;1.97;;;1.10;;
11817;SDS011;5966;52.402;5.322;2024-01-15T07:00:02;2.97;;;0.90;;
11817;SDS011;5966;52.402;5.322;2024-01-15T07:02:45;3.80;;;1.17;;
11817;SDS011;5966;52.402;5.322;2024-01-15T07:05:22;3.73;;;1.20;;
11817;SDS011;5966;52.402;5.322;2024-01-15T07:10:42;3.97;;;0.90;;
11817;SDS011;5966;52.402;5.322;2024-01-15T07:16:21;0.63;;;0.60;;
11817;SDS011;5966;52.402;5.322;2024-01-15T07:19:03;1.67;;;0.67;;
11817;SDS011;5966;52.402;5.322;2024-01-15T07:24:31;2.53;;;0.80;;
11817;SDS011;5966;52.402;5.322;2024-01-15T07:27:00;5.80;;;1.20;;
11817;SDS011;5966;52.402;5.322;2024-01-15T07:29:31;0.93;;;0.53;;
11817;SDS011;5966;52.402;5.322;2024-01-15T07:32:02;2.60;;;0.63;;
11817;SDS011;5966;52.402;5.322;2024-01-15T07:34:32;1.87;;;0.60;;
11817;SDS011;5966;52.402;5.322;2024-01-15T07:37:05;6.63;;;1.23;;
11817;SDS011;5966;52.402;5.322;2024-01-15T07:39:33;3.57;;;0.80;;
11817;SDS011;5966;52.402;5.322;2024-01-15T07:42:30;4.67;;;1.20;;
11817;SDS011;5966;52.402;5.322;2024-01-15T07:45:29;5.63;;;1.07;;
11817;SDS011;5966;52.402;5.322;2024-01-15T07:48:27;3.17;;;1.10;;
11817;SDS011;5966;52.402;5.322;2024-01-15T07:51:17;3.43;;;0.70;;
11817;SDS011;5966;52.402;5.322;2024-01-15T08:03:12;3.50;;;0.93;;
11817;SDS011;5966;52.402;5.322;2024-01-15T08:05:41;2.93;;;0.50;;
11817;SDS011;5966;52.402;5.322;2024-01-15T08:08:10;7.23;;;1.33;;
11817;SDS011;5966;52.402;5.322;2024-01-15T08:10:41;5.70;;;1.40;;
11817;SDS011;5966;52.402;5.322;2024-01-15T08:13:27;3.00;;;0.90;;
11817;SDS011;5966;52.402;5.322;2024-01-15T08:30:20;3.97;;;1.33;;
11817;SDS011;5966;52.402;5.322;2024-01-15T08:33:27;2.63;;;1.23;;
11817;SDS011;5966;52.402;5.322;2024-01-15T08:36:09;2.80;;;1.03;;
11817;SDS011;5966;52.402;5.322;2024-01-15T08:38:55;2.73;;;1.10;;
11817;SDS011;5966;52.402;5.322;2024-01-15T08:42:00;8.13;;;2.00;;
11817;SDS011;5966;52.402;5.322;2024-01-15T08:45:02;6.37;;;2.20;;
11817;SDS011;5966;52.402;5.322;2024-01-15T09:02:08;2.47;;;0.83;;
11817;SDS011;5966;52.402;5.322;2024-01-15T09:04:36;4.37;;;0.77;;
11817;SDS011;5966;52.402;5.322;2024-01-15T09:07:05;6.53;;;0.90;;
11817;SDS011;5966;52.402;5.322;2024-01-15T09:09:35;2.53;;;0.70;;
11817;SDS011;5966;52.402;5.322;2024-01-15T09:12:21;2.17;;;0.83;;
11817;SDS011;5966;52.402;5.322;2024-01-15T09:14:50;3.80;;;0.60;;
11817;SDS011;5966;52.402;5.322;2024-01-15T09:17:21;3.93;;;0.70;;
11817;SDS011;5966;52.402;5.322;2024-01-15T09:22:45;1.20;;;0.63;;
11817;SDS011;5966;52.402;5.322;2024-01-15T09:25:13;5.30;;;1.07;;
11817;SDS011;5966;52.402;5.322;2024-01-15T09:27:51;2.90;;;1.00;;
11817;SDS011;5966;52.402;5.322;2024-01-15T09:30:20;3.43;;;0.93;;
11817;SDS011;5966;52.402;5.322;2024-01-15T09:33:04;5.30;;;0.70;;
11817;SDS011;5966;52.402;5.322;2024-01-15T09:35:35;4.53;;;0.93;;
11817;SDS011;5966;52.402;5.322;2024-01-15T09:38:30;6.33;;;1.30;;
11817;SDS011;5966;52.402;5.322;2024-01-15T09:40:59;4.17;;;1.07;;
11817;SDS011;5966;52.402;5.322;2024-01-15T09:51:07;4.07;;;1.30;;
11817;SDS011;5966;52.402;5.322;2024-01-15T09:54:10;3.23;;;1.07;;
11817;SDS011;5966;52.402;5.322;2024-01-15T09:59:58;3.47;;;1.03;;
11817;SDS011;5966;52.402;5.322;2024-01-15T10:02:43;4.63;;;1.13;;
11817;SDS011;5966;52.402;5.322;2024-01-15T10:08:05;5.50;;;1.27;;
11817;SDS011;5966;52.402;5.322;2024-01-15T10:10:34;7.17;;;1.30;;
11817;SDS011;5966;52.402;5.322;2024-01-15T10:13:04;4.63;;;1.30;;
11817;SDS011;5966;52.402;5.322;2024-01-15T10:15:33;5.47;;;1.30;;
11817;SDS011;5966;52.402;5.322;2024-01-15T10:18:03;10.43;;;1.57;;
11817;SDS011;5966;52.402;5.322;2024-01-15T10:20:32;2.77;;;1.23;;
11817;SDS011;5966;52.402;5.322;2024-01-15T10:23:02;5.53;;;0.93;;
11817;SDS011;5966;52.402;5.322;2024-01-15T10:25:31;5.37;;;1.30;;
11817;SDS011;5966;52.402;5.322;2024-01-15T10:27:59;5.13;;;1.03;;
11817;SDS011;5966;52.402;5.322;2024-01-15T10:30:29;6.17;;;1.23;;
11817;SDS011;5966;52.402;5.322;2024-01-15T10:32:57;5.07;;;1.10;;
11817;SDS011;5966;52.402;5.322;2024-01-15T10:35:28;2.80;;;0.83;;
11817;SDS011;5966;52.402;5.322;2024-01-15T10:37:57;1.87;;;0.63;;
11817;SDS011;5966;52.402;5.322;2024-01-15T10:40:31;5.50;;;0.73;;
11817;SDS011;5966;52.402;5.322;2024-01-15T10:42:59;2.83;;;0.60;;
11817;SDS011;5966;52.402;5.322;2024-01-15T10:45:27;3.73;;;0.80;;
11817;SDS011;5966;52.402;5.322;2024-01-15T10:47:58;2.90;;;0.70;;
11817;SDS011;5966;52.402;5.322;2024-01-15T10:50:29;3.07;;;0.80;;
11817;SDS011;5966;52.402;5.322;2024-01-15T10:52:58;4.70;;;1.27;;
11817;SDS011;5966;52.402;5.322;2024-01-15T10:55:38;3.93;;;0.93;;
11817;SDS011;5966;52.402;5.322;2024-01-15T10:58:19;1.93;;;0.70;;
11817;SDS011;5966;52.402;5.322;2024-01-15T11:00:49;2.40;;;0.60;;
11817;SDS011;5966;52.402;5.322;2024-01-15T11:03:18;2.40;;;0.80;;
11817;SDS011;5966;52.402;5.322;2024-01-15T11:05:57;1.97;;;0.40;;
11817;SDS011;5966;52.402;5.322;2024-01-15T11:08:35;2.93;;;0.40;;
11817;SDS011;5966;52.402;5.322;2024-01-15T11:11:08;1.30;;;0.40;;
11817;SDS011;5966;52.402;5.322;2024-01-15T11:13:55;2.10;;;0.50;;
11817;SDS011;5966;52.402;5.322;2024-01-15T11:25:15;6.23;;;0.80;;
11817;SDS011;5966;52.402;5.322;2024-01-15T11:27:50;5.40;;;1.00;;
11817;SDS011;5966;52.402;5.322;2024-01-15T11:31:11;2.37;;;0.70;;
11817;SDS011;5966;52.402;5.322;2024-01-15T11:33:47;1.27;;;0.53;;
11817;SDS011;5966;52.402;5.322;2024-01-15T11:37:04;3.10;;;1.10;;
11817;SDS011;5966;52.402;5.322;2024-01-15T11:39:41;2.00;;;0.73;;
11817;SDS011;5966;52.402;5.322;2024-01-15T11:42:14;2.73;;;0.80;;
11817;SDS011;5966;52.402;5.322;2024-01-15T11:44:44;3.00;;;1.17;;
11817;SDS011;5966;52.402;5.322;2024-01-15T11:47:13;3.57;;;1.20;;
11817;SDS011;5966;52.402;5.322;2024-01-15T11:49:52;3.73;;;1.17;;
11817;SDS011;5966;52.402;5.322;2024-01-15T11:52:31;7.83;;;1.80;;
11817;SDS011;5966;52.402;5.322;2024-01-15T11:55:02;9.30;;;1.33;;
11817;SDS011;5966;52.402;5.322;2024-01-15T11:57:53;5.97;;;1.63;;
11817;SDS011;5966;52.402;5.322;2024-01-15T12:00:24;6.57;;;1.37;;
11817;SDS011;5966;52.402;5.322;2024-01-15T12:03:00;5.10;;;1.37;;
11817;SDS011;5966;52.402;5.322;2024-01-15T12:13:00;3.03;;;1.03;;
11817;SDS011;5966;52.402;5.322;2024-01-15T12:19:44;5.07;;;1.23;;
11817;SDS011;5966;52.402;5.322;2024-01-15T12:23:02;3.27;;;0.73;;
11817;SDS011;5966;52.402;5.322;2024-01-15T13:36:44;3.10;;;0.80;;
11817;SDS011;5966;52.402;5.322;2024-01-15T13:39:14;3.50;;;0.97;;
11817;SDS011;5966;52.402;5.322;2024-01-15T13:41:48;2.90;;;0.70;;
11817;SDS011;5966;52.402;5.322;2024-01-15T13:47:55;4.43;;;1.13;;
11817;SDS011;5966;52.402;5.322;2024-01-15T13:53:33;4.57;;;1.17;;
11817;SDS011;5966;52.402;5.322;2024-01-15T13:56:09;3.93;;;1.03;;
11817;SDS011;5966;52.402;5.322;2024-01-15T13:58:46;4.73;;;1.40;;
11817;SDS011;5966;52.402;5.322;2024-01-15T14:01:31;6.90;;;1.30;;
11817;SDS011;5966;52.402;5.322;2024-01-15T14:04:19;4.47;;;1.30;;
11817;SDS011;5966;52.402;5.322;2024-01-15T14:06:48;4.30;;;1.23;;
11817;SDS011;5966;52.402;5.322;2024-01-15T14:12:24;3.03;;;0.97;;
11817;SDS011;5966;52.402;5.322;2024-01-15T14:18:19;4.50;;;1.73;;
11817;SDS011;5966;52.402;5.322;2024-01-15T14:20:50;6.10;;;1.70;;
11817;SDS011;5966;52.402;5.322;2024-01-15T14:23:26;9.73;;;2.00;;
11817;SDS011;5966;52.402;5.322;2024-01-15T14:25:56;12.80;;;1.80;;
11817;SDS011;5966;52.402;5.322;2024-01-15T14:28:25;4.77;;;1.67;;
11817;SDS011;5966;52.402;5.322;2024-01-15T14:30:53;9.13;;;1.90;;
11817;SDS011;5966;52.402;5.322;2024-01-15T14:33:24;10.77;;;2.47;;
11817;SDS011;5966;52.402;5.322;2024-01-15T14:36:33;5.70;;;1.50;;
11817;SDS011;5966;52.402;5.322;2024-01-15T14:39:02;8.20;;;1.87;;
11817;SDS011;5966;52.402;5.322;2024-01-15T14:41:32;9.27;;;1.83;;
11817;SDS011;5966;52.402;5.322;2024-01-15T14:44:00;6.03;;;1.87;;
11817;SDS011;5966;52.402;5.322;2024-01-15T14:46:29;5.37;;;1.43;;
11817;SDS011;5966;52.402;5.322;2024-01-15T14:48:58;4.70;;;1.23;;
11817;SDS011;5966;52.402;5.322;2024-01-15T14:51:26;6.17;;;1.57;;
11817;SDS011;5966;52.402;5.322;2024-01-15T14:53:57;9.83;;;1.93;;
11817;SDS011;5966;52.402;5.322;2024-01-15T14:56:29;7.27;;;1.70;;
11817;SDS011;5966;52.402;5.322;2024-01-15T14:59:08;1.83;;;0.80;;
11817;SDS011;5966;52.402;5.322;2024-01-15T15:01:37;4.97;;;1.40;;
11817;SDS011;5966;52.402;5.322;2024-01-15T15:04:16;4.53;;;1.13;;
11817;SDS011;5966;52.402;5.322;2024-01-15T15:06:56;6.37;;;1.30;;
11817;SDS011;5966;52.402;5.322;2024-01-15T15:09:43;9.00;;;1.23;;
11817;SDS011;5966;52.402;5.322;2024-01-15T15:12:14;4.17;;;1.50;;
11817;SDS011;5966;52.402;5.322;2024-01-15T15:14:51;5.50;;;1.10;;
11817;SDS011;5966;52.402;5.322;2024-01-15T15:17:54;4.37;;;1.17;;
11817;SDS011;5966;52.402;5.322;2024-01-15T15:20:25;1.70;;;0.53;;
11817;SDS011;5966;52.402;5.322;2024-01-15T15:23:00;3.93;;;0.60;;
11817;SDS011;5966;52.402;5.322;2024-01-15T15:29:05;1.70;;;0.67;;
11817;SDS011;5966;52.402;5.322;2024-01-15T15:31:35;7.83;;;1.20;;
11817;SDS011;5966;52.402;5.322;2024-01-15T15:34:03;4.07;;;0.93;;
11817;SDS011;5966;52.402;5.322;2024-01-15T15:36:32;2.00;;;0.80;;
11817;SDS011;5966;52.402;5.322;2024-01-15T15:39:02;2.53;;;1.23;;
11817;SDS011;5966;52.402;5.322;2024-01-15T15:41:31;2.13;;;1.00;;
11817;SDS011;5966;52.402;5.322;2024-01-15T15:44:28;3.60;;;0.80;;
11817;SDS011;5966;52.402;5.322;2024-01-15T15:47:25;2.47;;;0.83;;
11817;SDS011;5966;52.402;5.322;2024-01-15T15:50:12;0.70;;;0.43;;
11817;SDS011;5966;52.402;5.322;2024-01-15T15:52:48;2.40;;;1.37;;
11817;SDS011;5966;52.402;5.322;2024-01-15T15:55:36;4.43;;;0.90;;
11817;SDS011;5966;52.402;5.322;2024-01-15T15:58:35;3.73;;;0.90;;
11817;SDS011;5966;52.402;5.322;2024-01-15T16:01:30;6.60;;;1.10;;
11817;SDS011;5966;52.402;5.322;2024-01-15T16:07:42;4.03;;;0.87;;
11817;SDS011;5966;52.402;5.322;2024-01-15T16:14:13;3.23;;;0.80;;
11817;SDS011;5966;52.402;5.322;2024-01-15T16:24:30;3.60;;;1.00;;
11817;SDS011;5966;52.402;5.322;2024-01-15T16:27:41;2.53;;;0.80;;
11817;SDS011;5966;52.402;5.322;2024-01-15T16:30:26;4.40;;;1.20;;
11817;SDS011;5966;52.402;5.322;2024-01-15T16:33:10;3.70;;;1.07;;
11817;SDS011;5966;52.402;5.322;2024-01-15T16:35:51;3.10;;;0.80;;
11817;SDS011;5966;52.402;5.322;2024-01-15T16:38:22;4.53;;;1.07;;
11817;SDS011;5966;52.402;5.322;2024-01-15T16:40:50;2.93;;;1.50;;
11817;SDS011;5966;52.402;5.322;2024-01-15T16:46:48;2.77;;;0.90;;
11817;SDS011;5966;52.402;5.322;2024-01-15T16:49:35;2.10;;;1.07;;
11817;SDS011;5966;52.402;5.322;2024-01-15T16:52:17;2.90;;;0.63;;
11817;SDS011;5966;52.402;5.322;2024-01-15T16:54:56;3.43;;;0.80;;
11817;SDS011;5966;52.402;5.322;2024-01-15T16:57:24;2.77;;;0.77;;
11817;SDS011;5966;52.402;5.322;2024-01-15T17:00:12;3.47;;;1.23;;
11817;SDS011;5966;52.402;5.322;2024-01-15T17:02:44;3.20;;;1.00;;
11817;SDS011;5966;52.402;5.322;2024-01-15T17:05:47;7.27;;;1.60;;
11817;SDS011;5966;52.402;5.322;2024-01-15T17:09:00;3.97;;;1.50;;
11817;SDS011;5966;52.402;5.322;2024-01-15T17:14:52;4.93;;;1.50;;
11817;SDS011;5966;52.402;5.322;2024-01-15T17:17:22;6.57;;;1.40;;
11817;SDS011;5966;52.402;5.322;2024-01-15T17:24:37;5.73;;;1.77;;
11817;SDS011;5966;52.402;5.322;2024-01-15T17:27:16;5.80;;;1.43;;
11817;SDS011;5966;52.402;5.322;2024-01-15T17:29:48;11.90;;;1.97;;
11817;SDS011;5966;52.402;5.322;2024-01-15T17:32:31;6.40;;;1.40;;
11817;SDS011;5966;52.402;5.322;2024-01-15T17:35:25;5.50;;;1.30;;
11817;SDS011;5966;52.402;5.322;2024-01-15T17:37:55;3.57;;;0.90;;
11817;SDS011;5966;52.402;5.322;2024-01-15T17:40:26;6.53;;;1.33;;
11817;SDS011;5966;52.402;5.322;2024-01-15T17:42:57;2.83;;;1.00;;
11817;SDS011;5966;52.402;5.322;2024-01-15T17:45:25;3.50;;;1.00;;
11817;SDS011;5966;52.402;5.322;2024-01-15T17:54:11;5.03;;;1.13;;
11817;SDS011;5966;52.402;5.322;2024-01-15T17:56:50;6.87;;;0.87;;
11817;SDS011;5966;52.402;5.322;2024-01-15T17:59:40;3.33;;;1.23;;
11817;SDS011;5966;52.402;5.322;2024-01-15T18:02:14;8.57;;;1.00;;
11817;SDS011;5966;52.402;5.322;2024-01-15T18:05:01;3.30;;;1.10;;
11817;SDS011;5966;52.402;5.322;2024-01-15T18:10:57;3.27;;;1.20;;
11817;SDS011;5966;52.402;5.322;2024-01-15T18:14:07;7.23;;;1.30;;
11817;SDS011;5966;52.402;5.322;2024-01-15T18:16:51;6.03;;;1.70;;
11817;SDS011;5966;52.402;5.322;2024-01-15T18:19:22;2.50;;;1.20;;
11817;SDS011;5966;52.402;5.322;2024-01-15T18:21:53;4.27;;;1.00;;
11817;SDS011;5966;52.402;5.322;2024-01-15T18:24:26;3.93;;;0.97;;
11817;SDS011;5966;52.402;5.322;2024-01-15T18:26:54;8.10;;;1.50;;
11817;SDS011;5966;52.402;5.322;2024-01-15T18:29:25;2.93;;;1.30;;
11817;SDS011;5966;52.402;5.322;2024-01-15T18:31:59;3.60;;;1.20;;
11817;SDS011;5966;52.402;5.322;2024-01-15T18:34:28;4.00;;;1.30;;
11817;SDS011;5966;52.402;5.322;2024-01-15T18:37:19;6.93;;;1.67;;
11817;SDS011;5966;52.402;5.322;2024-01-15T18:39:59;6.07;;;1.30;;
11817;SDS011;5966;52.402;5.322;2024-01-15T18:42:38;8.20;;;1.80;;
11817;SDS011;5966;52.402;5.322;2024-01-15T18:45:12;4.73;;;1.23;;
11817;SDS011;5966;52.402;5.322;2024-01-15T18:47:45;3.10;;;1.17;;
11817;SDS011;5966;52.402;5.322;2024-01-15T18:50:15;5.63;;;1.37;;
11817;SDS011;5966;52.402;5.322;2024-01-15T18:52:51;3.20;;;0.80;;
11817;SDS011;5966;52.402;5.322;2024-01-15T18:55:21;5.30;;;1.00;;
11817;SDS011;5966;52.402;5.322;2024-01-15T18:57:51;3.37;;;1.20;;
11817;SDS011;5966;52.402;5.322;2024-01-15T19:00:26;1.47;;;0.77;;
11817;SDS011;5966;52.402;5.322;2024-01-15T19:02:58;6.87;;;1.50;;
11817;SDS011;5966;52.402;5.322;2024-01-15T19:06:00;2.13;;;0.83;;
11817;SDS011;5966;52.402;5.322;2024-01-15T19:11:37;1.87;;;0.77;;
11817;SDS011;5966;52.402;5.322;2024-01-15T19:17:28;2.60;;;1.00;;
11817;SDS011;5966;52.402;5.322;2024-01-15T19:20:00;5.20;;;1.17;;
11817;SDS011;5966;52.402;5.322;2024-01-15T19:25:35;8.60;;;1.30;;